sensor_id;sensor_type;location;lat;lon;timestamp;pressure;altitude;pressure_sealevel;temperature;humidity
9035;BME280;4552;43.422;24.592;2024-02-04T00:01:52;100264.06;;;9.84;76.07
9035;BME280;4552;43.422;24.592;2024-02-04T00:04:20;100256.25;;;9.78;75.55
9035;BME280;4552;43.422;24.592;2024-02-04T00:06:48;100260.59;;;9.81;75.57
9035;BME280;4552;43.422;24.592;2024-02-04T00:09:15;100264.94;;;9.83;75.70
9035;BME280;4552;43.422;24.592;2024-02-04T00:11:44;100262.31;;;9.86;75.43
9035;BME280;4552;43.422;24.592;2024-02-04T00:14:11;100271.03;;;9.88;75.13
9035;BME280;4552;43.422;24.592;2024-02-04T00:16:38;100245.75;;;9.84;75.07
9035;BME280;4552;43.422;24.592;2024-02-04T00:19:05;100272.72;;;9.95;74.64
9035;BME280;4552;43.422;24.592;2024-02-04T00:37:03;100253.28;;;10.35;72.44
9035;BME280;4552;43.422;24.592;2024-02-04T00:39:30;100255.91;;;10.37;72.25
9035;BME280;4552;43.422;24.592;2024-02-04T00:41:57;100252.41;;;10.36;72.21
9035;BME280;4552;43.422;24.592;2024-02-04T00:44:24;100250.72;;;10.29;72.28
9035;BME280;4552;43.422;24.592;2024-02-04T00:46:51;100256.81;;;10.34;72.19
9035;BME280;4552;43.422;24.592;2024-02-04T00:52:41;100242.66;;;10.57;70.77
9035;BME280;4552;43.422;24.592;2024-02-04T00:55:08;100246.91;;;10.68;70.51
9035;BME280;4552;43.422;24.592;2024-02-04T00:57:35;100246.00;;;10.71;69.54
9035;BME280;4552;43.422;24.592;2024-02-04T01:00:03;100252.00;;;10.83;69.58
9035;BME280;4552;43.422;24.592;2024-02-04T01:02:30;100244.19;;;10.79;69.26
9035;BME280;4552;43.422;24.592;2024-02-04T01:12:13;100238.06;;;10.80;69.31
9035;BME280;4552;43.422;24.592;2024-02-04T01:14:40;100225.81;;;10.85;69.62
9035;BME280;4552;43.422;24.592;2024-02-04T01:17:07;100236.31;;;10.82;69.37
9035;BME280;4552;43.422;24.592;2024-02-04T01:19:34;100218.84;;;10.79;68.99
9035;BME280;4552;43.422;24.592;2024-02-04T01:22:01;100227.56;;;10.83;69.03
9035;BME280;4552;43.422;24.592;2024-02-04T01:24:28;100193.63;;;10.72;69.53
9035;BME280;4552;43.422;24.592;2024-02-04T01:26:56;100222.34;;;10.80;69.88
9035;BME280;4552;43.422;24.592;2024-02-04T01:29:25;100213.66;;;10.75;70.29
9035;BME280;4552;43.422;24.592;2024-02-04T01:31:52;100212.91;;;10.67;70.30
9035;BME280;4552;43.422;24.592;2024-02-04T01:34:19;100204.13;;;10.69;70.44
9035;BME280;4552;43.422;24.592;2024-02-04T01:36:46;100212.03;;;10.65;70.71
9035;BME280;4552;43.422;24.592;2024-02-04T01:39:13;100204.16;;;10.66;70.49
9035;BME280;4552;43.422;24.592;2024-02-04T01:41:40;100206.81;;;10.65;70.28
9035;BME280;4552;43.422;24.592;2024-02-04T01:44:10;100206.81;;;10.65;70.26
9035;BME280;4552;43.422;24.592;2024-02-04T01:46:39;100205.00;;;10.71;70.70
9035;BME280;4552;43.422;24.592;2024-02-04T01:49:06;100203.25;;;10.69;70.96
9035;BME280;4552;43.422;24.592;2024-02-04T01:51:33;100211.13;;;10.67;71.31
9035;BME280;4552;43.422;24.592;2024-02-04T01:54:01;100206.91;;;10.56;71.98
9035;BME280;4552;43.422;24.592;2024-02-04T01:56:28;100199.97;;;10.48;72.22
9035;BME280;4552;43.422;24.592;2024-02-04T01:58:57;100208.75;;;10.41;72.70
9035;BME280;4552;43.422;24.592;2024-02-04T02:01:26;100196.56;;;10.40;73.35
9035;BME280;4552;43.422;24.592;2024-02-04T02:10:37;100182.88;;;10.05;75.17
9035;BME280;4552;43.422;24.592;2024-02-04T02:13:14;100186.34;;;10.04;75.64
9035;BME280;4552;43.422;24.592;2024-02-04T02:15:47;100177.72;;;9.99;76.02
9035;BME280;4552;43.422;24.592;2024-02-04T02:55:16;100160.56;;;9.56;80.82
9035;BME280;4552;43.422;24.592;2024-02-04T02:57:43;100160.59;;;9.53;80.94
9035;BME280;4552;43.422;24.592;2024-02-04T03:00:11;100158.00;;;9.52;80.65
9035;BME280;4552;43.422;24.592;2024-02-04T03:02:38;100164.13;;;9.43;80.87
9035;BME280;4552;43.422;24.592;2024-02-04T03:05:05;100171.06;;;9.49;81.15
9035;BME280;4552;43.422;24.592;2024-02-04T03:07:32;100168.47;;;9.46;81.29
9035;BME280;4552;43.422;24.592;2024-02-04T03:09:59;100166.72;;;9.43;81.53
9035;BME280;4552;43.422;24.592;2024-02-04T03:12:27;100165.91;;;9.38;81.74
9035;BME280;4552;43.422;24.592;2024-02-04T03:14:54;100167.66;;;9.33;82.29
9035;BME280;4552;43.422;24.592;2024-02-04T03:17:21;100155.50;;;9.26;82.11
9035;BME280;4552;43.422;24.592;2024-02-04T04:47:21;100156.50;;;9.01;86.65
9035;BME280;4552;43.422;24.592;2024-02-04T04:49:48;100151.31;;;8.95;86.79
9035;BME280;4552;43.422;24.592;2024-02-04T04:52:16;100150.47;;;8.84;87.16
9035;BME280;4552;43.422;24.592;2024-02-04T04:54:43;100165.25;;;8.82;87.97
9035;BME280;4552;43.422;24.592;2024-02-04T04:57:10;100168.75;;;8.75;88.58
9035;BME280;4552;43.422;24.592;2024-02-04T04:59:37;100171.38;;;8.69;89.01
9035;BME280;4552;43.422;24.592;2024-02-04T05:02:04;100174.00;;;8.66;89.36
9035;BME280;4552;43.422;24.592;2024-02-04T08:44:09;100236.84;;;12.40;68.70
9035;BME280;4552;43.422;24.592;2024-02-04T08:46:36;100247.19;;;12.49;68.73
9035;BME280;4552;43.422;24.592;2024-02-04T09:19:10;100269.69;;;12.65;68.76
9035;BME280;4552;43.422;24.592;2024-02-04T09:21:37;100271.13;;;12.82;67.45
9035;BME280;4552;43.422;24.592;2024-02-04T09:24:04;100289.31;;;12.96;67.53
9035;BME280;4552;43.422;24.592;2024-02-04T09:26:32;100283.50;;;12.77;67.64
9035;BME280;4552;43.422;24.592;2024-02-04T09:29:06;100301.84;;;12.80;67.92
9035;BME280;4552;43.422;24.592;2024-02-04T09:31:35;100280.66;;;12.89;67.68
9035;BME280;4552;43.422;24.592;2024-02-04T09:34:02;100278.88;;;12.91;67.46
9035;BME280;4552;43.422;24.592;2024-02-04T09:36:31;100294.63;;;12.93;67.27
9035;BME280;4552;43.422;24.592;2024-02-04T09:38:58;100306.13;;;12.84;66.73
9035;BME280;4552;43.422;24.592;2024-02-04T09:41:25;100300.00;;;12.85;66.90
9035;BME280;4552;43.422;24.592;2024-02-04T09:43:53;100289.72;;;12.70;67.88
9035;BME280;4552;43.422;24.592;2024-02-04T09:46:20;100286.56;;;12.50;68.54
9035;BME280;4552;43.422;24.592;2024-02-04T10:43:55;100269.22;;;12.92;66.25
9035;BME280;4552;43.422;24.592;2024-02-04T10:46:26;100236.84;;;12.91;66.69
9035;BME280;4552;43.422;24.592;2024-02-04T10:49:01;100221.94;;;12.90;66.43
9035;BME280;4552;43.422;24.592;2024-02-04T10:51:33;100234.13;;;12.96;65.87
9035;BME280;4552;43.422;24.592;2024-02-04T10:54:03;100226.47;;;12.82;66.51
9035;BME280;4552;43.422;24.592;2024-02-04T10:56:37;100230.72;;;12.91;65.94
9035;BME280;4552;43.422;24.592;2024-02-04T10:59:09;100230.25;;;13.16;65.89
9035;BME280;4552;43.422;24.592;2024-02-04T11:01:38;100223.50;;;13.47;64.65
9035;BME280;4552;43.422;24.592;2024-02-04T11:04:06;100224.38;;;13.46;64.00
9035;BME280;4552;43.422;24.592;2024-02-04T11:06:35;100233.00;;;13.53;63.99
9035;BME280;4552;43.422;24.592;2024-02-04T11:09:04;100231.59;;;13.37;63.91
9035;BME280;4552;43.422;24.592;2024-02-04T11:11:32;100227.38;;;13.28;63.97
9035;BME280;4552;43.422;24.592;2024-02-04T11:14:02;100214.69;;;13.06;64.87
9035;BME280;4552;43.422;24.592;2024-02-04T11:16:46;100207.84;;;12.96;65.58
9035;BME280;4552;43.422;24.592;2024-02-04T11:19:25;100205.69;;;13.19;66.06
9035;BME280;4552;43.422;24.592;2024-02-04T11:22:17;100198.91;;;13.48;64.80
9035;BME280;4552;43.422;24.592;2024-02-04T11:24:57;100191.66;;;13.59;64.33
9035;BME280;4552;43.422;24.592;2024-02-04T11:27:28;100197.50;;;13.32;64.71
9035;BME280;4552;43.422;24.592;2024-02-04T11:29:56;100172.28;;;13.22;64.86
9035;BME280;4552;43.422;24.592;2024-02-04T11:32:25;100166.94;;;13.27;64.50
9035;BME280;4552;43.422;24.592;2024-02-04T11:58:36;100153.69;;;14.08;59.59
9035;BME280;4552;43.422;24.592;2024-02-04T12:01:03;100160.88;;;14.01;60.29
9035;BME280;4552;43.422;24.592;2024-02-04T12:03:30;100172.38;;;13.97;59.57
9035;BME280;4552;43.422;24.592;2024-02-04T12:05:57;100148.97;;;13.85;60.18
9035;BME280;4552;43.422;24.592;2024-02-04T12:08:25;100154.50;;;13.74;60.46
9035;BME280;4552;43.422;24.592;2024-02-04T12:10:54;100165.03;;;13.73;60.51
9035;BME280;4552;43.422;24.592;2024-02-04T12:13:22;100169.91;;;13.89;60.41
9035;BME280;4552;43.422;24.592;2024-02-04T12:15:50;100159.31;;;13.92;59.63
9035;BME280;4552;43.422;24.592;2024-02-04T12:18:17;100155.34;;;13.76;59.50
9035;BME280;4552;43.422;24.592;2024-02-04T12:20:46;100138.56;;;13.80;59.77
9035;BME280;4552;43.422;24.592;2024-02-04T12:23:14;100137.72;;;13.78;59.62
9035;BME280;4552;43.422;24.592;2024-02-04T12:25:41;100144.56;;;13.87;59.53
9035;BME280;4552;43.422;24.592;2024-02-04T12:28:08;100142.53;;;13.98;59.68
9035;BME280;4552;43.422;24.592;2024-02-04T12:30:35;100138.56;;;14.16;58.24
9035;BME280;4552;43.422;24.592;2024-02-04T12:33:05;100137.34;;;14.32;57.53
9035;BME280;4552;43.422;24.592;2024-02-04T12:35:34;100129.19;;;14.41;57.74
9035;BME280;4552;43.422;24.592;2024-02-04T12:38:01;100107.38;;;14.36;57.97
9035;BME280;4552;43.422;24.592;2024-02-04T12:40:29;100128.41;;;14.37;57.77
9035;BME280;4552;43.422;24.592;2024-02-04T12:42:58;100115.09;;;14.42;57.59
9035;BME280;4552;43.422;24.592;2024-02-04T12:45:25;100117.25;;;14.60;57.67
9035;BME280;4552;43.422;24.592;2024-02-04T12:47:53;100108.63;;;14.55;56.59
9035;BME280;4552;43.422;24.592;2024-02-04T12:50:24;100094.06;;;14.40;56.84
9035;BME280;4552;43.422;24.592;2024-02-04T12:53:02;100087.84;;;14.43;56.85
9035;BME280;4552;43.422;24.592;2024-02-04T12:55:29;100084.25;;;14.47;56.66
9035;BME280;4552;43.422;24.592;2024-02-04T12:58:04;100103.53;;;14.49;56.61
9035;BME280;4552;43.422;24.592;2024-02-04T13:00:32;100089.56;;;14.45;55.46
9035;BME280;4552;43.422;24.592;2024-02-04T13:02:59;100078.09;;;14.46;56.08
9035;BME280;4552;43.422;24.592;2024-02-04T13:05:38;100083.78;;;14.63;56.08
9035;BME280;4552;43.422;24.592;2024-02-04T13:08:13;100072.63;;;14.84;55.55
9035;BME280;4552;43.422;24.592;2024-02-04T13:10:53;100066.31;;;14.61;54.81
9035;BME280;4552;43.422;24.592;2024-02-04T13:17:14;100084.16;;;14.50;56.54
9035;BME280;4552;43.422;24.592;2024-02-04T13:19:41;100088.84;;;14.71;56.41
9035;BME280;4552;43.422;24.592;2024-02-04T13:22:11;100081.75;;;14.73;56.49
9035;BME280;4552;43.422;24.592;2024-02-04T13:24:41;100084.50;;;14.70;56.06
9035;BME280;4552;43.422;24.592;2024-02-04T13:27:08;100073.13;;;14.68;55.22
9035;BME280;4552;43.422;24.592;2024-02-04T13:29:35;100091.81;;;14.89;54.77
9035;BME280;4552;43.422;24.592;2024-02-04T13:32:16;100118.44;;;14.80;54.66
9035;BME280;4552;43.422;24.592;2024-02-04T13:34:43;100107.59;;;14.60;55.94
9035;BME280;4552;43.422;24.592;2024-02-04T13:37:25;100086.88;;;14.47;55.74
9035;BME280;4552;43.422;24.592;2024-02-04T13:39:55;100078.06;;;14.48;55.98
9035;BME280;4552;43.422;24.592;2024-02-04T13:42:32;100084.09;;;14.53;56.55
9035;BME280;4552;43.422;24.592;2024-02-04T13:45:21;100090.06;;;14.59;56.99
9035;BME280;4552;43.422;24.592;2024-02-04T13:47:49;100101.34;;;14.63;57.60
9035;BME280;4552;43.422;24.592;2024-02-04T13:50:16;100095.28;;;14.61;57.42
9035;BME280;4552;43.422;24.592;2024-02-04T13:52:44;100083.78;;;14.63;57.20
9035;BME280;4552;43.422;24.592;2024-02-04T13:55:11;100071.13;;;14.76;56.71
9035;BME280;4552;43.422;24.592;2024-02-04T13:57:38;100097.97;;;14.59;57.41
9035;BME280;4552;43.422;24.592;2024-02-04T14:00:35;100071.97;;;14.47;56.78
9035;BME280;4552;43.422;24.592;2024-02-04T14:03:16;100072.84;;;14.46;55.95
9035;BME280;4552;43.422;24.592;2024-02-04T14:05:45;100075.59;;;14.42;56.55
9035;BME280;4552;43.422;24.592;2024-02-04T14:08:14;100094.28;;;14.33;57.31
9035;BME280;4552;43.422;24.592;2024-02-04T14:10:41;100071.84;;;14.18;57.43
9035;BME280;4552;43.422;24.592;2024-02-04T14:13:08;100105.72;;;14.32;56.43
9035;BME280;4552;43.422;24.592;2024-02-04T14:15:36;100086.44;;;14.31;56.88
9035;BME280;4552;43.422;24.592;2024-02-04T16:39:24;100139.41;;;11.50;71.76
9035;BME280;4552;43.422;24.592;2024-02-04T16:41:51;100132.50;;;11.46;72.04
9035;BME280;4552;43.422;24.592;2024-02-04T16:44:18;100142.94;;;11.47;72.39
9035;BME280;4552;43.422;24.592;2024-02-04T16:46:46;100146.38;;;11.51;72.55
9035;BME280;4552;43.422;24.592;2024-02-04T16:49:13;100162.06;;;11.54;72.44
9035;BME280;4552;43.422;24.592;2024-02-04T16:51:41;100152.44;;;11.54;72.33
9035;BME280;4552;43.422;24.592;2024-02-04T16:54:08;100162.00;;;11.63;72.19
9035;BME280;4552;43.422;24.592;2024-02-04T16:56:37;100159.34;;;11.64;72.18
9035;BME280;4552;43.422;24.592;2024-02-04T16:59:05;100154.13;;;11.63;71.95
9035;BME280;4552;43.422;24.592;2024-02-04T17:01:34;100168.03;;;11.66;71.75
9035;BME280;4552;43.422;24.592;2024-02-04T17:04:02;100157.56;;;11.62;72.09
9035;BME280;4552;43.422;24.592;2024-02-04T18:14:06;100203.53;;;11.25;73.86
9035;BME280;4552;43.422;24.592;2024-02-04T18:16:33;100202.75;;;11.17;74.55
9035;BME280;4552;43.422;24.592;2024-02-04T18:19:05;100217.50;;;11.24;74.57
9035;BME280;4552;43.422;24.592;2024-02-04T18:25:03;100223.84;;;11.05;75.44
9035;BME280;4552;43.422;24.592;2024-02-04T18:27:30;100208.28;;;10.90;75.68
9035;BME280;4552;43.422;24.592;2024-02-04T18:30:00;100209.97;;;10.97;75.67
9035;BME280;4552;43.422;24.592;2024-02-04T18:32:28;100203.97;;;10.86;75.82
9035;BME280;4552;43.422;24.592;2024-02-04T18:34:55;100217.13;;;10.80;76.20
9035;BME280;4552;43.422;24.592;2024-02-04T18:37:22;100216.25;;;10.78;76.41
9035;BME280;4552;43.422;24.592;2024-02-04T18:39:49;100227.59;;;10.80;76.55
9035;BME280;4552;43.422;24.592;2024-02-04T18:42:17;100218.03;;;10.77;76.54
9035;BME280;4552;43.422;24.592;2024-02-04T18:44:48;100225.84;;;10.82;75.98
9035;BME280;4552;43.422;24.592;2024-02-04T18:47:16;100233.63;;;10.89;75.88
9035;BME280;4552;43.422;24.592;2024-02-04T19:04:01;100224.09;;;10.81;76.12
9035;BME280;4552;43.422;24.592;2024-02-04T19:06:28;100218.06;;;10.74;76.28
9035;BME280;4552;43.422;24.592;2024-02-04T19:08:56;100213.66;;;10.76;76.40
9035;BME280;4552;43.422;24.592;2024-02-04T19:11:24;100215.47;;;10.71;76.34
9035;BME280;4552;43.422;24.592;2024-02-04T19:13:51;100211.94;;;10.74;76.08
9035;BME280;4552;43.422;24.592;2024-02-04T19:16:21;100224.97;;;10.81;75.33
9035;BME280;4552;43.422;24.592;2024-02-04T19:18:49;100211.97;;;10.72;75.87
9035;BME280;4552;43.422;24.592;2024-02-04T19:21:18;100220.72;;;10.71;76.28
9035;BME280;4552;43.422;24.592;2024-02-04T19:23:45;100227.66;;;10.72;76.40
9035;BME280;4552;43.422;24.592;2024-02-04T19:26:26;100212.97;;;10.59;76.63
9035;BME280;4552;43.422;24.592;2024-02-04T19:29:08;100206.91;;;10.56;76.94
9035;BME280;4552;43.422;24.592;2024-02-04T19:31:38;100189.50;;;10.48;77.18
9035;BME280;4552;43.422;24.592;2024-02-04T19:37:12;100194.66;;;10.54;77.20
9035;BME280;4552;43.422;24.592;2024-02-04T19:39:50;100210.38;;;10.53;77.53
9035;BME280;4552;43.422;24.592;2024-02-04T19:42:20;100195.63;;;10.46;77.74
9035;BME280;4552;43.422;24.592;2024-02-04T19:44:49;100199.94;;;10.51;77.87
9035;BME280;4552;43.422;24.592;2024-02-04T19:47:26;100172.97;;;10.45;77.86
9035;BME280;4552;43.422;24.592;2024-02-04T19:50:17;100201.66;;;10.56;77.53
9035;BME280;4552;43.422;24.592;2024-02-04T19:52:53;100207.72;;;10.62;77.42
9035;BME280;4552;43.422;24.592;2024-02-04T19:55:20;100199.84;;;10.64;77.50
9035;BME280;4552;43.422;24.592;2024-02-04T19:57:53;100195.56;;;10.55;77.52
9035;BME280;4552;43.422;24.592;2024-02-04T20:00:20;100201.63;;;10.59;77.39
9035;BME280;4552;43.422;24.592;2024-02-04T20:12:53;100190.53;;;10.34;78.75
9035;BME280;4552;43.422;24.592;2024-02-04T20:15:22;100182.69;;;10.32;78.60
9035;BME280;4552;43.422;24.592;2024-02-04T20:17:53;100187.00;;;10.36;78.69
9035;BME280;4552;43.422;24.592;2024-02-04T20:20:20;100177.41;;;10.38;78.27
9035;BME280;4552;43.422;24.592;2024-02-04T20:22:49;100184.22;;;10.51;77.74
9035;BME280;4552;43.422;24.592;2024-02-04T20:25:19;100181.56;;;10.57;77.38
9035;BME280;4552;43.422;24.592;2024-02-04T20:27:49;100178.91;;;10.64;76.58
9035;BME280;4552;43.422;24.592;2024-02-04T20:30:17;100174.53;;;10.63;76.38
9035;BME280;4552;43.422;24.592;2024-02-04T20:32:44;100165.84;;;10.57;76.06
9035;BME280;4552;43.422;24.592;2024-02-04T21:33:53;100139.31;;;10.92;70.89
9035;BME280;4552;43.422;24.592;2024-02-04T22:03:15;100110.78;;;10.70;70.85
9035;BME280;4552;43.422;24.592;2024-02-04T22:42:43;100073.78;;;10.97;64.88
9035;BME280;4552;43.422;24.592;2024-02-04T22:45:10;100072.16;;;10.87;65.11
9035;BME280;4552;43.422;24.592;2024-02-04T22:47:39;100060.03;;;10.80;65.31
9035;BME280;4552;43.422;24.592;2024-02-04T23:27:03;100026.13;;;11.30;61.82
9035;BME280;4552;43.422;24.592;2024-02-04T23:29:31;100025.09;;;11.41;61.62
9035;BME280;4552;43.422;24.592;2024-02-04T23:32:00;100029.53;;;11.36;61.72
9035;BME280;4552;43.422;24.592;2024-02-04T23:34:27;100044.16;;;11.49;61.02
9035;BME280;4552;43.422;24.592;2024-02-04T23:43:43;100009.41;;;11.40;61.60
9035;BME280;4552;43.422;24.592;2024-02-04T23:46:11;99999.03;;;11.32;61.73
9035;BME280;4552;43.422;24.592;2024-02-04T23:48:39;99987.72;;;11.30;61.73
9035;BME280;4552;43.422;24.592;2024-02-04T23:51:07;99993.94;;;11.23;61.77
9035;BME280;4552;43.422;24.592;2024-02-04T23:53:34;99994.88;;;11.18;62.11
9035;BME280;4552;43.422;24.592;2024-02-04T23:56:01;99991.66;;;11.01;62.66
9035;BME280;4552;43.422;24.592;2024-02-04T23:58:28;100016.81;;;11.12;62.76
